Time,TemperatureF,DewpointF,PressureIn,WindDirection,WindDirectionDegrees,WindSpeedMPH,WindSpeedGustMPH,Humidity,HourlyPrecipIn,Conditions,Clouds,dailyrainin,SoftwareType,DateUTC
2013-05-19 00:02:00,67.9,33.6,29.78,SE,146,2.0,2.0,28,0.00,,SKC,0.00,VWS V14.01,2013-05-19 07:02:00,
2013-05-19 00:07:00,67.7,34.3,29.78,SSE,153,2.0,4.0,29,0.00,,SKC,0.00,VWS V14.01,2013-05-19 07:07:00,
2013-05-19 00:12:00,67.6,34.2,29.78,ESE,115,1.0,4.0,29,0.00,,SKC,0.00,VWS V14.01,2013-05-19 07:12:00,
2013-05-19 00:17:00,67.0,34.6,29.78,ESE,115,0.0,4.0,30,0.00,,SKC,0.00,VWS V14.01,2013-05-19 07:17:00,
2013-05-19 00:22:00,65.5,34.1,29.78,ESE,116,0.0,4.0,31,0.00,,SKC,0.00,VWS V14.01,2013-05-19 07:22:00,
2013-05-19 00:27:00,64.4,33.9,29.78,ESE,111,1.0,4.0,32,0.00,,SKC,0.00,VWS V14.01,2013-05-19 07:27:00,
2013-05-19 00:32:00,63.1,35.0,29.78,WNW,290,3.0,3.0,35,0.00,,SKC,0.00,VWS V14.01,2013-05-19 07:32:00,
2013-05-19 00:37:00,62.0,34.8,29.78,NW,316,4.0,4.0,36,0.00,,SKC,0.00,VWS V14.01,2013-05-19 07:37:00,
2013-05-19 00:42:00,62.2,33.5,29.78,NNW,330,2.0,4.0,34,0.00,,SKC,0.00,VWS V14.01,2013-05-19 07:42:00,
2013-05-19 00:47:00,62.6,33.9,29.78,NNW,328,2.0,4.0,34,0.00,,SKC,0.00,VWS V14.01,2013-05-19 07:47:00,
2013-05-19 00:52:00,63.3,34.5,29.79,West,279,3.0,4.0,34,0.00,,SKC,0.00,VWS V14.01,2013-05-19 07:52:00,
2013-05-19 00:57:00,64.8,35.0,29.79,NE,46,1.0,4.0,33,0.00,,SKC,0.00,VWS V14.01,2013-05-19 07:57:00,
2013-05-19 01:02:00,64.7,34.2,29.79,East,91,1.0,1.0,32,0.00,,SKC,0.00,VWS V14.01,2013-05-19 08:02:00,
2013-05-19 01:07:00,64.0,34.3,29.79,ESE,113,1.0,1.0,33,0.00,,SKC,0.00,VWS V14.01,2013-05-19 08:07:00,
2013-05-19 01:12:00,62.9,34.8,29.78,NW,323,2.0,2.0,35,0.00,,SKC,0.00,VWS V14.01,2013-05-19 08:12:00,
2013-05-19 01:17:00,62.1,35.5,29.78,NW,320,0.0,2.0,37,0.00,,SKC,0.00,VWS V14.01,2013-05-19 08:17:00,
2013-05-19 01:22:00,61.6,35.8,29.79,NW,320,2.0,2.0,38,0.00,,SKC,0.00,VWS V14.01,2013-05-19 08:22:00,
2013-05-19 01:27:00,61.4,34.2,29.79,NNE,18,1.0,4.0,36,0.00,,SKC,0.00,VWS V14.01,2013-05-19 08:27:00,
2013-05-19 01:32:00,62.0,34.1,29.79,NNE,12,0.0,3.0,35,0.00,,SKC,0.00,VWS V14.01,2013-05-19 08:32:00,
2013-05-19 01:37:00,61.5,34.3,29.79,WNW,301,0.0,3.0,36,0.00,,SKC,0.00,VWS V14.01,2013-05-19 08:37:00,
2013-05-19 01:42:00,60.4,35.3,29.78,WNW,300,0.0,3.0,39,0.00,,SKC,0.00,VWS V14.01,2013-05-19 08:42:00,
2013-05-19 01:47:00,59.3,35.0,29.79,WNW,301,0.0,3.0,40,0.00,,SKC,0.00,VWS V14.01,2013-05-19 08:47:00,
2013-05-19 01:52:00,58.6,35.0,29.79,WNW,301,0.0,3.0,41,0.00,,SKC,0.00,VWS V14.01,2013-05-19 08:52:00,
2013-05-19 01:57:00,57.5,35.2,29.79,WNW,300,1.0,3.0,43,0.00,,SKC,0.00,VWS V14.01,2013-05-19 08:57:00,
2013-05-19 02:02:00,57.2,34.3,29.79,WNW,300,1.0,1.0,42,0.00,,SKC,0.00,VWS V14.01,2013-05-19 09:02:00,
2013-05-19 02:07:00,56.5,35.4,29.79,SW,235,1.0,1.0,45,0.00,,SKC,0.00,VWS V14.01,2013-05-19 09:07:00,
2013-05-19 02:12:00,56.1,33.3,29.79,SW,235,1.0,1.0,42,0.00,,SKC,0.00,VWS V14.01,2013-05-19 09:12:00,
2013-05-19 02:17:00,56.2,34.0,29.79,SW,235,1.0,1.0,43,0.00,,SKC,0.00,VWS V14.01,2013-05-19 09:17:00,
2013-05-19 02:22:00,55.3,34.3,29.79,SW,235,1.0,1.0,45,0.00,,SKC,0.00,VWS V14.01,2013-05-19 09:22:00,
2013-05-19 02:27:00,54.8,35.5,29.79,SW,236,1.0,2.0,48,0.00,,SKC,0.00,VWS V14.01,2013-05-19 09:27:00,
2013-05-19 02:32:00,54.2,35.0,29.79,WSW,239,0.0,2.0,48,0.00,,SKC,0.00,VWS V14.01,2013-05-19 09:32:00,
2013-05-19 02:37:00,53.6,34.4,29.79,WSW,239,0.0,2.0,48,0.00,,SKC,0.00,VWS V14.01,2013-05-19 09:37:00,
2013-05-19 02:42:00,53.8,34.1,29.79,WSW,238,0.0,2.0,47,0.00,,SKC,0.00,VWS V14.01,2013-05-19 09:42:00,
2013-05-19 02:47:00,53.3,34.1,29.79,WSW,239,0.0,2.0,48,0.00,,SKC,0.00,VWS V14.01,2013-05-19 09:47:00,
2013-05-19 02:52:00,52.8,34.7,29.79,WSW,238,0.0,2.0,50,0.00,,SKC,0.00,VWS V14.01,2013-05-19 09:52:00,
2013-05-19 02:57:00,52.5,34.9,29.79,WSW,239,1.0,2.0,51,0.00,,SKC,0.00,VWS V14.01,2013-05-19 09:57:00,
2013-05-19 03:03:00,52.1,34.5,29.79,WSW,239,0.0,0.0,51,0.00,,SKC,0.00,VWS V14.01,2013-05-19 10:03:00,
2013-05-19 03:08:00,51.7,33.7,29.79,WSW,239,0.0,0.0,50,0.00,,SKC,0.00,VWS V14.01,2013-05-19 10:08:00,
2013-05-19 03:13:00,51.2,34.2,29.79,WSW,238,0.0,1.0,52,0.00,,SKC,0.00,VWS V14.01,2013-05-19 10:13:00,
2013-05-19 03:18:00,51.2,36.1,29.80,WSW,238,1.0,1.0,56,0.00,,SKC,0.00,VWS V14.01,2013-05-19 10:18:00,
2013-05-19 03:23:00,50.9,35.8,29.80,WSW,238,0.0,1.0,56,0.00,,SKC,0.00,VWS V14.01,2013-05-19 10:23:00,
2013-05-19 03:28:00,50.5,35.0,29.80,WSW,239,0.0,1.0,55,0.00,,SKC,0.00,VWS V14.01,2013-05-19 10:28:00,
2013-05-19 03:33:00,50.1,35.0,29.79,WSW,239,0.0,0.0,56,0.00,,SKC,0.00,VWS V14.01,2013-05-19 10:33:00,
2013-05-19 03:38:00,49.8,34.8,29.80,WSW,239,0.0,0.0,56,0.00,,SKC,0.00,VWS V14.01,2013-05-19 10:38:00,
2013-05-19 03:43:00,49.6,34.1,29.80,WSW,238,0.0,0.0,55,0.00,,SKC,0.00,VWS V14.01,2013-05-19 10:43:00,
2013-05-19 03:48:00,49.6,35.0,29.80,WSW,239,1.0,1.0,57,0.00,,SKC,0.00,VWS V14.01,2013-05-19 10:48:00,
2013-05-19 03:53:00,49.4,34.8,29.80,WSW,239,0.0,1.0,57,0.00,,SKC,0.00,VWS V14.01,2013-05-19 10:53:00,
2013-05-19 03:58:00,49.1,35.0,29.80,WSW,238,0.0,1.0,58,0.00,,SKC,0.00,VWS V14.01,2013-05-19 10:58:00,
2013-05-19 04:03:00,48.6,34.1,29.80,WSW,238,0.0,0.0,57,0.00,,SKC,0.00,VWS V14.01,2013-05-19 11:03:00,
2013-05-19 04:08:00,48.2,34.6,29.80,WSW,239,0.0,0.0,59,0.00,,SKC,0.00,VWS V14.01,2013-05-19 11:08:00,
2013-05-19 04:13:00,48.2,35.0,29.80,WSW,239,0.0,0.0,60,0.00,,SKC,0.00,VWS V14.01,2013-05-19 11:13:00,
2013-05-19 04:18:00,48.2,34.6,29.80,WSW,238,0.0,0.0,59,0.00,,SKC,0.00,VWS V14.01,2013-05-19 11:18:00,
2013-05-19 04:23:00,47.7,34.9,29.80,WSW,239,0.0,0.0,61,0.00,,SKC,0.00,VWS V14.01,2013-05-19 11:23:00,
2013-05-19 04:28:00,47.5,33.9,29.80,WSW,239,0.0,0.0,59,0.00,,SKC,0.00,VWS V14.01,2013-05-19 11:28:00,
2013-05-19 04:33:00,47.3,33.3,29.79,WSW,239,0.0,0.0,58,0.00,,SKC,0.00,VWS V14.01,2013-05-19 11:33:00,
2013-05-19 04:38:00,47.3,34.5,29.79,WSW,238,0.0,0.0,61,0.00,,SKC,0.00,VWS V14.01,2013-05-19 11:38:00,
2013-05-19 04:43:00,47.0,34.7,29.79,WSW,238,0.0,0.0,62,0.00,,SKC,0.00,VWS V14.01,2013-05-19 11:43:00,
2013-05-19 04:48:00,46.8,34.5,29.80,WSW,238,0.0,0.0,62,0.00,,SKC,0.00,VWS V14.01,2013-05-19 11:48:00,
2013-05-19 04:53:00,46.6,34.7,29.80,WSW,238,0.0,0.0,63,0.00,,SKC,0.00,VWS V14.01,2013-05-19 11:53:00,
2013-05-19 04:58:00,46.4,34.5,29.80,WSW,239,0.0,0.0,63,0.00,,SKC,0.00,VWS V14.01,2013-05-19 11:58:00,
2013-05-19 05:03:00,46.2,34.3,29.80,WSW,239,0.0,0.0,63,0.00,,SKC,0.00,VWS V14.01,2013-05-19 12:03:00,
2013-05-19 05:08:00,46.1,33.8,29.80,WSW,239,0.0,0.0,62,0.00,,SKC,0.00,VWS V14.01,2013-05-19 12:08:00,
2013-05-19 05:13:00,46.0,34.1,29.80,WSW,239,0.0,0.0,63,0.00,,SKC,0.00,VWS V14.01,2013-05-19 12:13:00,
2013-05-19 05:18:00,45.8,33.5,29.81,WSW,239,1.0,1.0,62,0.00,,SKC,0.00,VWS V14.01,2013-05-19 12:18:00,
2013-05-19 05:23:00,45.7,33.8,29.81,WSW,238,0.0,1.0,63,0.00,,SKC,0.00,VWS V14.01,2013-05-19 12:23:00,
2013-05-19 05:28:00,45.6,33.8,29.81,WSW,239,0.0,1.0,63,0.00,,SKC,0.00,VWS V14.01,2013-05-19 12:28:00,
2013-05-19 05:33:00,45.4,33.6,29.81,WSW,239,0.0,0.0,63,0.00,,SKC,0.00,VWS V14.01,2013-05-19 12:33:00,
2013-05-19 05:39:00,45.3,33.5,29.81,WSW,239,0.0,1.0,63,0.00,,SKC,0.00,VWS V14.01,2013-05-19 12:39:00,
2013-05-19 05:44:00,45.8,34.3,29.81,WSW,238,0.0,1.0,64,0.00,,SKC,0.00,VWS V14.01,2013-05-19 12:44:00,
2013-05-19 05:49:00,46.6,34.7,29.81,WSW,238,1.0,1.0,63,0.00,,SKC,0.00,VWS V14.01,2013-05-19 12:49:00,
2013-05-19 05:54:00,47.3,35.0,29.81,WSW,238,0.0,1.0,62,0.00,,SKC,0.00,VWS V14.01,2013-05-19 12:54:00,
2013-05-19 05:59:00,48.1,36.5,29.81,WSW,239,0.0,1.0,64,0.00,,SKC,0.00,VWS V14.01,2013-05-19 12:59:00,
2013-05-19 06:04:00,49.0,35.7,29.81,WSW,239,1.0,1.0,60,0.00,,SKC,0.00,VWS V14.01,2013-05-19 13:04:00,
2013-05-19 06:09:00,50.4,35.8,29.81,WSW,238,1.0,1.0,57,0.00,,SKC,0.00,VWS V14.01,2013-05-19 13:09:00,
2013-05-19 06:14:00,51.8,35.7,29.82,WSW,239,1.0,1.0,54,0.00,,SKC,0.00,VWS V14.01,2013-05-19 13:14:00,
2013-05-19 06:19:00,52.9,35.8,29.82,WSW,239,1.0,1.0,52,0.00,,SKC,0.00,VWS V14.01,2013-05-19 13:19:00,
2013-05-19 06:24:00,53.8,35.6,29.82,NW,323,0.0,2.0,50,0.00,,SKC,0.00,VWS V14.01,2013-05-19 13:24:00,
2013-05-19 06:29:00,54.8,35.0,29.82,NNW,328,0.0,2.0,47,0.00,,SKC,0.00,VWS V14.01,2013-05-19 13:29:00,
2013-05-19 06:34:00,55.8,34.8,29.82,North,6,1.0,2.0,45,0.00,,SKC,0.00,VWS V14.01,2013-05-19 13:34:00,
2013-05-19 06:39:00,56.5,34.9,29.83,NNE,16,1.0,2.0,44,0.00,,SKC,0.00,VWS V14.01,2013-05-19 13:39:00,
2013-05-19 06:44:00,56.9,34.7,29.83,NNE,25,1.0,2.0,43,0.00,,SKC,0.00,VWS V14.01,2013-05-19 13:44:00,
2013-05-19 06:49:00,57.3,34.4,29.83,NW,321,1.0,2.0,42,0.00,,SKC,0.00,VWS V14.01,2013-05-19 13:49:00,
2013-05-19 06:54:00,58.0,35.1,29.83,NW,320,0.0,2.0,42,0.00,,SKC,0.00,VWS V14.01,2013-05-19 13:54:00,
2013-05-19 06:59:00,58.8,35.2,29.83,NW,320,1.0,2.0,41,0.00,,SKC,0.00,VWS V14.01,2013-05-19 13:59:00,
2013-05-19 07:04:00,59.5,35.2,29.83,NW,321,0.0,0.0,40,0.00,,SKC,0.00,VWS V14.01,2013-05-19 14:04:00,
2013-05-19 07:09:00,60.2,35.8,29.83,North,359,2.0,2.0,40,0.00,,SKC,0.00,VWS V14.01,2013-05-19 14:09:00,
2013-05-19 07:14:00,60.4,36.0,29.83,NNE,23,1.0,4.0,40,0.00,,SKC,0.00,VWS V14.01,2013-05-19 14:14:00,
2013-05-19 07:19:00,60.8,35.7,29.83,NW,318,2.0,4.0,39,0.00,,SKC,0.00,VWS V14.01,2013-05-19 14:19:00,
2013-05-19 07:24:00,61.2,36.1,29.83,NW,314,2.0,4.0,39,0.00,,SKC,0.00,VWS V14.01,2013-05-19 14:24:00,
2013-05-19 07:29:00,61.8,36.0,29.83,NE,38,1.0,4.0,38,0.00,,SKC,0.00,VWS V14.01,2013-05-19 14:29:00,
2013-05-19 07:34:00,62.5,35.9,29.83,NE,41,2.0,5.0,37,0.00,,SKC,0.00,VWS V14.01,2013-05-19 14:34:00,
2013-05-19 07:39:00,63.0,35.7,29.83,North,349,1.0,5.0,36,0.00,,SKC,0.00,VWS V14.01,2013-05-19 14:39:00,
2013-05-19 07:44:00,63.5,35.4,29.83,NNW,342,1.0,5.0,35,0.00,,SKC,0.00,VWS V14.01,2013-05-19 14:44:00,
2013-05-19 07:49:00,64.2,36.7,29.83,North,11,2.0,5.0,36,0.00,,SKC,0.00,VWS V14.01,2013-05-19 14:49:00,
2013-05-19 07:54:00,65.1,36.8,29.83,NW,319,2.0,5.0,35,0.00,,SKC,0.00,VWS V14.01,2013-05-19 14:54:00,
2013-05-19 07:59:00,66.1,36.9,29.83,NE,37,2.0,5.0,34,0.00,,SKC,0.00,VWS V14.01,2013-05-19 14:59:00,
2013-05-19 08:04:00,67.3,37.2,29.83,NNW,337,2.0,3.0,33,0.00,,SKC,0.00,VWS V14.01,2013-05-19 15:04:00,
2013-05-19 08:10:00,68.3,37.3,29.83,North,349,2.0,3.0,32,0.00,,SKC,0.00,VWS V14.01,2013-05-19 15:10:00,
2013-05-19 08:15:00,69.3,37.4,29.83,ESE,113,1.0,3.0,31,0.00,,SKC,0.00,VWS V14.01,2013-05-19 15:15:00,
2013-05-19 08:20:00,70.0,36.3,29.83,NE,53,3.0,3.0,29,0.00,,SKC,0.00,VWS V14.01,2013-05-19 15:20:00,
2013-05-19 08:25:00,70.7,37.8,29.82,NNE,32,1.0,4.0,30,0.00,,SKC,0.00,VWS V14.01,2013-05-19 15:25:00,
2013-05-19 08:30:00,71.8,37.0,29.82,NNE,27,2.0,4.0,28,0.00,,SKC,0.00,VWS V14.01,2013-05-19 15:30:00,
2013-05-19 08:35:00,72.6,36.7,29.82,North,359,2.0,2.0,27,0.00,,SKC,0.00,VWS V14.01,2013-05-19 15:35:00,
2013-05-19 08:40:00,73.3,35.4,29.82,North,352,2.0,3.0,25,0.00,,SKC,0.00,VWS V14.01,2013-05-19 15:40:00,
2013-05-19 08:45:00,73.4,35.5,29.82,North,350,0.0,3.0,25,0.00,,SKC,0.00,VWS V14.01,2013-05-19 15:45:00,
2013-05-19 08:50:00,73.9,34.9,29.82,East,87,2.0,3.0,24,0.00,,SKC,0.00,VWS V14.01,2013-05-19 15:50:00,
2013-05-19 08:55:00,74.8,35.6,29.82,ESE,114,2.0,3.0,24,0.00,,SKC,0.00,VWS V14.01,2013-05-19 15:55:00,
2013-05-19 09:00:00,74.7,37.6,29.82,North,350,1.0,3.0,26,0.00,,SKC,0.00,VWS V14.01,2013-05-19 16:00:00,
2013-05-19 09:05:00,75.0,40.6,29.82,South,188,1.0,2.0,29,0.00,,SKC,0.00,VWS V14.01,2013-05-19 16:05:00,
2013-05-19 09:10:00,75.1,34.8,29.82,NNW,332,1.0,2.0,23,0.00,,SKC,0.00,VWS V14.01,2013-05-19 16:10:00,
2013-05-19 09:15:00,75.2,39.0,29.81,SSW,212,2.0,3.0,27,0.00,,SKC,0.00,VWS V14.01,2013-05-19 16:15:00,
2013-05-19 09:20:00,75.3,33.9,29.81,West,278,0.0,3.0,22,0.00,,SKC,0.00,VWS V14.01,2013-05-19 16:20:00,
2013-05-19 09:25:00,76.1,34.5,29.81,NNW,330,1.0,3.0,22,0.00,,SKC,0.00,VWS V14.01,2013-05-19 16:25:00,
2013-05-19 09:30:00,76.4,34.8,29.81,North,349,0.0,3.0,22,0.00,,SKC,0.00,VWS V14.01,2013-05-19 16:30:00,
2013-05-19 09:35:00,76.6,35.0,29.81,NNE,26,1.0,4.0,22,0.00,,SKC,0.00,VWS V14.01,2013-05-19 16:35:00,
2013-05-19 09:40:00,77.2,33.1,29.81,SE,129,3.0,9.0,20,0.00,,SKC,0.00,VWS V14.01,2013-05-19 16:40:00,
2013-05-19 09:45:00,77.5,32.0,29.81,SSE,159,0.0,9.0,19,0.00,,SKC,0.00,VWS V14.01,2013-05-19 16:45:00,
2013-05-19 09:50:00,78.2,33.9,29.80,NE,39,2.0,9.0,20,0.00,,SKC,0.00,VWS V14.01,2013-05-19 16:50:00,
2013-05-19 09:55:00,78.2,32.6,29.80,NE,50,3.0,9.0,19,0.00,,SKC,0.00,VWS V14.01,2013-05-19 16:55:00,
2013-05-19 10:00:00,78.2,33.9,29.80,South,170,0.0,0.0,20,0.00,,SKC,0.00,VWS V14.01,2013-05-19 17:00:00,
2013-05-19 10:05:00,79.2,32.1,29.80,SE,139,1.0,5.0,18,0.00,,SKC,0.00,VWS V14.01,2013-05-19 17:05:00,
2013-05-19 10:10:00,79.3,32.2,29.80,South,174,3.0,6.0,18,0.00,,SKC,0.00,VWS V14.01,2013-05-19 17:10:00,
2013-05-19 10:16:00,78.7,31.7,29.80,SW,214,1.0,6.0,18,0.00,,SKC,0.00,VWS V14.01,2013-05-19 17:16:00,
2013-05-19 10:21:00,78.5,31.5,29.80,NNW,331,2.0,6.0,18,0.00,,SKC,0.00,VWS V14.01,2013-05-19 17:21:00,
2013-05-19 10:26:00,78.5,34.1,29.80,SSW,198,4.0,6.0,20,0.00,,SKC,0.00,VWS V14.01,2013-05-19 17:26:00,
2013-05-19 10:31:00,78.6,32.9,29.80,SSW,198,1.0,1.0,19,0.00,,SKC,0.00,VWS V14.01,2013-05-19 17:31:00,
2013-05-19 10:36:00,78.3,31.4,29.80,WSW,245,3.0,6.0,18,0.00,,SKC,0.00,VWS V14.01,2013-05-19 17:36:00,
2013-05-19 10:41:00,78.4,34.0,29.80,South,190,1.0,8.0,20,0.00,,SKC,0.00,VWS V14.01,2013-05-19 17:41:00,
2013-05-19 10:46:00,78.6,32.9,29.80,WSW,253,1.0,8.0,19,0.00,,SKC,0.00,VWS V14.01,2013-05-19 17:46:00,
2013-05-19 10:51:00,78.9,33.2,29.79,WNW,291,0.0,8.0,19,0.00,,SKC,0.00,VWS V14.01,2013-05-19 17:51:00,
2013-05-19 10:56:00,79.8,36.4,29.79,WSW,245,2.0,8.0,21,0.00,,SKC,0.00,VWS V14.01,2013-05-19 17:56:00,
2013-05-19 11:01:00,79.7,32.5,29.79,WNW,289,1.0,2.0,18,0.00,,SKC,0.00,VWS V14.01,2013-05-19 18:01:00,
2013-05-19 11:06:00,79.6,32.4,29.79,NE,34,3.0,5.0,18,0.00,,SKC,0.00,VWS V14.01,2013-05-19 18:06:00,
2013-05-19 11:11:00,79.7,31.1,29.78,NNW,340,4.0,5.0,17,0.00,,SKC,0.00,VWS V14.01,2013-05-19 18:11:00,
2013-05-19 11:16:00,79.3,32.2,29.78,East,83,3.0,6.0,18,0.00,,SKC,0.00,VWS V14.01,2013-05-19 18:16:00,
2013-05-19 11:21:00,79.7,31.1,29.78,ENE,67,4.0,6.0,17,0.00,,SKC,0.00,VWS V14.01,2013-05-19 18:21:00,
2013-05-19 11:26:00,80.2,31.5,29.77,SSE,148,3.0,6.0,17,0.00,,SKC,0.00,VWS V14.01,2013-05-19 18:26:00,
2013-05-19 11:31:00,80.9,32.0,29.77,ESE,102,4.0,5.0,17,0.00,,SKC,0.00,VWS V14.01,2013-05-19 18:31:00,
2013-05-19 11:36:00,80.9,32.0,29.77,NNE,32,1.0,5.0,17,0.00,,SKC,0.00,VWS V14.01,2013-05-19 18:36:00,
2013-05-19 11:41:00,80.9,32.0,29.77,ESE,117,3.0,5.0,17,0.00,,SKC,0.00,VWS V14.01,2013-05-19 18:41:00,
2013-05-19 11:46:00,81.6,34.0,29.76,WSW,256,4.0,7.0,18,0.00,,SKC,0.00,VWS V14.01,2013-05-19 18:46:00,
2013-05-19 11:51:00,81.0,29.0,29.76,NNE,16,1.0,8.0,15,0.00,,SKC,0.00,VWS V14.01,2013-05-19 18:51:00,
2013-05-19 11:56:00,81.3,29.3,29.76,East,93,4.0,8.0,15,0.00,,SKC,0.00,VWS V14.01,2013-05-19 18:56:00,
2013-05-19 12:01:00,81.6,34.0,29.75,SSW,197,9.0,9.0,18,0.00,,SKC,0.00,VWS V14.01,2013-05-19 19:01:00,
2013-05-19 12:06:00,81.6,32.6,29.75,NNE,25,4.0,9.0,17,0.00,,SKC,0.00,VWS V14.01,2013-05-19 19:06:00,
2013-05-19 12:11:00,82.5,30.2,29.75,ESE,108,2.0,9.0,15,0.00,,SKC,0.00,VWS V14.01,2013-05-19 19:11:00,
2013-05-19 12:16:00,83.1,29.0,29.74,NNW,327,3.0,9.0,14,0.00,,SKC,0.00,VWS V14.01,2013-05-19 19:16:00,
2013-05-19 12:21:00,83.2,30.8,29.74,WNW,297,6.0,9.0,15,0.00,,SKC,0.00,VWS V14.01,2013-05-19 19:21:00,
2013-05-19 12:26:00,82.6,30.3,29.74,NW,319,7.0,9.0,15,0.00,,SKC,0.00,VWS V14.01,2013-05-19 19:26:00,
2013-05-19 12:31:00,82.1,31.5,29.74,WNW,290,4.0,4.0,16,0.00,,SKC,0.00,VWS V14.01,2013-05-19 19:31:00,
2013-05-19 12:36:00,81.9,31.4,29.73,SW,217,2.0,8.0,16,0.00,,SKC,0.00,VWS V14.01,2013-05-19 19:36:00,
2013-05-19 12:42:00,82.4,28.5,29.73,ESE,120,2.0,8.0,14,0.00,,SKC,0.00,VWS V14.01,2013-05-19 19:42:00,
2013-05-19 12:47:00,82.8,28.8,29.73,SSW,200,2.0,8.0,14,0.00,,SKC,0.00,VWS V14.01,2013-05-19 19:47:00,
2013-05-19 12:52:00,83.2,29.1,29.73,North,352,1.0,8.0,14,0.00,,SKC,0.00,VWS V14.01,2013-05-19 19:52:00,
2013-05-19 12:57:00,84.5,26.4,29.73,North,350,1.0,8.0,12,0.00,,SKC,0.00,VWS V14.01,2013-05-19 19:57:00,
2013-05-19 13:02:00,84.8,26.6,29.72,SSE,165,7.0,11.0,12,0.00,,SKC,0.00,VWS V14.01,2013-05-19 20:02:00,
2013-05-19 13:07:00,84.7,26.5,29.72,ESE,120,3.0,11.0,12,0.00,,SKC,0.00,VWS V14.01,2013-05-19 20:07:00,
2013-05-19 13:12:00,84.5,24.3,29.71,SSW,193,6.0,11.0,11,0.00,,SKC,0.00,VWS V14.01,2013-05-19 20:12:00,
2013-05-19 13:17:00,84.8,28.5,29.71,South,181,10.0,12.0,13,0.00,,SKC,0.00,VWS V14.01,2013-05-19 20:17:00,
2013-05-19 13:22:00,84.6,28.4,29.71,South,173,12.0,13.0,13,0.00,,SKC,0.00,VWS V14.01,2013-05-19 20:22:00,
2013-05-19 13:27:00,85.0,26.8,29.71,South,179,9.0,13.0,12,0.00,,SKC,0.00,VWS V14.01,2013-05-19 20:27:00,
2013-05-19 13:32:00,85.0,26.8,29.71,SSE,150,6.0,8.0,12,0.00,,SKC,0.00,VWS V14.01,2013-05-19 20:32:00,
2013-05-19 13:37:00,84.8,26.6,29.71,South,170,8.0,18.0,12,0.00,,SKC,0.00,VWS V14.01,2013-05-19 20:37:00,
2013-05-19 13:42:00,85.1,26.8,29.71,South,188,12.0,18.0,12,0.00,,SKC,0.00,VWS V14.01,2013-05-19 20:42:00,
2013-05-19 13:47:00,84.7,28.5,29.71,SE,133,7.0,18.0,13,0.00,,SKC,0.00,VWS V14.01,2013-05-19 20:47:00,
2013-05-19 13:52:00,85.0,24.7,29.70,South,176,4.0,18.0,11,0.00,,SKC,0.00,VWS V14.01,2013-05-19 20:52:00,
2013-05-19 13:57:00,84.7,24.4,29.70,South,171,6.0,19.0,11,0.00,,SKC,0.00,VWS V14.01,2013-05-19 20:57:00,
2013-05-19 14:02:00,84.7,24.4,29.70,SSE,167,7.0,10.0,11,0.00,,SKC,0.00,VWS V14.01,2013-05-19 21:02:00,
2013-05-19 14:07:00,85.3,22.6,29.70,SSE,147,6.0,13.0,10,0.00,,SKC,0.00,VWS V14.01,2013-05-19 21:07:00,
2013-05-19 14:12:00,85.3,27.0,29.70,SSE,166,9.0,13.0,12,0.00,,SKC,0.00,VWS V14.01,2013-05-19 21:12:00,
2013-05-19 14:17:00,85.6,25.1,29.70,SSE,156,8.0,15.0,11,0.00,,SKC,0.00,VWS V14.01,2013-05-19 21:17:00,
2013-05-19 14:22:00,85.1,26.8,29.70,SE,143,6.0,15.0,12,0.00,,SKC,0.00,VWS V14.01,2013-05-19 21:22:00,
2013-05-19 14:27:00,85.8,23.0,29.70,SSE,156,11.0,15.0,10,0.00,,SKC,0.00,VWS V14.01,2013-05-19 21:27:00,
2013-05-19 14:33:00,85.7,25.2,29.70,South,169,7.0,11.0,11,0.00,,SKC,0.00,VWS V14.01,2013-05-19 21:33:00,
2013-05-19 14:38:00,85.7,22.9,29.70,South,170,11.0,12.0,10,0.00,,SKC,0.00,VWS V14.01,2013-05-19 21:38:00,
2013-05-19 14:43:00,84.9,26.7,29.69,South,186,8.0,13.0,12,0.00,,SKC,0.00,VWS V14.01,2013-05-19 21:43:00,
2013-05-19 14:48:00,84.9,26.7,29.69,SSE,156,4.0,13.0,12,0.00,,SKC,0.00,VWS V14.01,2013-05-19 21:48:00,
2013-05-19 14:53:00,85.2,24.8,29.70,South,173,6.0,13.0,11,0.00,,SKC,0.00,VWS V14.01,2013-05-19 21:53:00,
2013-05-19 14:58:00,85.7,25.2,29.69,SE,128,7.0,17.0,11,0.00,,SKC,0.00,VWS V14.01,2013-05-19 21:58:00,
2013-05-19 15:03:00,85.6,22.9,29.69,SSE,158,10.0,12.0,10,0.00,,SKC,0.00,VWS V14.01,2013-05-19 22:03:00,
2013-05-19 15:08:00,85.2,22.5,29.69,SSE,149,5.0,13.0,10,0.00,,SKC,0.00,VWS V14.01,2013-05-19 22:08:00,
2013-05-19 15:13:00,85.3,24.9,29.69,South,170,4.0,13.0,11,0.00,,SKC,0.00,VWS V14.01,2013-05-19 22:13:00,
2013-05-19 15:18:00,85.7,25.2,29.69,SSE,160,7.0,13.0,11,0.00,,SKC,0.00,VWS V14.01,2013-05-19 22:18:00,
2013-05-19 15:23:00,85.4,22.7,29.69,SSE,150,4.0,13.0,10,0.00,,SKC,0.00,VWS V14.01,2013-05-19 22:23:00,
2013-05-19 15:28:00,85.4,27.1,29.69,SE,134,10.0,14.0,12,0.00,,SKC,0.00,VWS V14.01,2013-05-19 22:28:00,
2013-05-19 15:33:00,85.3,22.6,29.69,SE,136,13.0,16.0,10,0.00,,SKC,0.00,VWS V14.01,2013-05-19 22:33:00,
2013-05-19 15:38:00,84.9,24.6,29.68,ESE,122,7.0,17.0,11,0.00,,SKC,0.00,VWS V14.01,2013-05-19 22:38:00,
2013-05-19 15:43:00,84.9,24.6,29.68,SW,217,9.0,17.0,11,0.00,,SKC,0.00,VWS V14.01,2013-05-19 22:43:00,
2013-05-19 15:48:00,85.1,26.8,29.68,South,172,8.0,17.0,12,0.00,,SKC,0.00,VWS V14.01,2013-05-19 22:48:00,
2013-05-19 15:53:00,85.0,24.7,29.68,SSE,168,9.0,17.0,11,0.00,,SKC,0.00,VWS V14.01,2013-05-19 22:53:00,
2013-05-19 15:58:00,85.3,24.9,29.68,SSE,166,7.0,17.0,11,0.00,,SKC,0.00,VWS V14.01,2013-05-19 22:58:00,
2013-05-19 16:03:00,85.4,27.1,29.68,South,190,5.0,14.0,12,0.00,,SKC,0.00,VWS V14.01,2013-05-19 23:03:00,
2013-05-19 16:09:00,85.2,26.9,29.68,SSE,147,17.0,17.0,12,0.00,,SKC,0.00,VWS V14.01,2013-05-19 23:09:00,
2013-05-19 16:14:00,84.9,26.7,29.68,SE,131,6.0,17.0,12,0.00,,SKC,0.00,VWS V14.01,2013-05-19 23:14:00,
2013-05-19 16:19:00,85.1,26.8,29.68,SSE,166,6.0,17.0,12,0.00,,SKC,0.00,VWS V14.01,2013-05-19 23:19:00,
2013-05-19 16:24:00,84.7,28.5,29.68,SSE,162,8.0,17.0,13,0.00,,SKC,0.00,VWS V14.01,2013-05-19 23:24:00,
2013-05-19 16:29:00,84.7,26.5,29.67,South,169,8.0,17.0,12,0.00,,SKC,0.00,VWS V14.01,2013-05-19 23:29:00,
2013-05-19 16:34:00,84.6,26.5,29.68,SE,146,10.0,13.0,12,0.00,,SKC,0.00,VWS V14.01,2013-05-19 23:34:00,
2013-05-19 16:39:00,84.8,28.5,29.68,SSE,155,10.0,14.0,13,0.00,,SKC,0.00,VWS V14.01,2013-05-19 23:39:00,
2013-05-19 16:44:00,84.6,26.5,29.68,SSE,159,3.0,14.0,12,0.00,,SKC,0.00,VWS V14.01,2013-05-19 23:44:00,
2013-05-19 16:49:00,84.5,26.4,29.68,SSE,167,6.0,14.0,12,0.00,,SKC,0.00,VWS V14.01,2013-05-19 23:49:00,
2013-05-19 16:54:00,84.7,26.5,29.68,SSE,156,2.0,14.0,12,0.00,,SKC,0.00,VWS V14.01,2013-05-19 23:54:00,
2013-05-19 16:59:00,84.7,26.5,29.68,South,172,7.0,14.0,12,0.00,,SKC,0.00,VWS V14.01,2013-05-19 23:59:00,
2013-05-19 17:04:00,84.5,26.4,29.68,South,172,4.0,8.0,12,0.00,,SKC,0.00,VWS V14.01,2013-05-20 00:04:00,
2013-05-19 17:09:00,84.7,28.5,29.68,SSE,166,7.0,8.0,13,0.00,,SKC,0.00,VWS V14.01,2013-05-20 00:09:00,
2013-05-19 17:14:00,84.7,28.5,29.68,SSE,153,8.0,15.0,13,0.00,,SKC,0.00,VWS V14.01,2013-05-20 00:14:00,
2013-05-19 17:19:00,84.7,26.5,29.68,SE,142,5.0,15.0,12,0.00,,SKC,0.00,VWS V14.01,2013-05-20 00:19:00,
2013-05-19 17:24:00,84.5,26.4,29.68,SSE,150,5.0,15.0,12,0.00,,SKC,0.00,VWS V14.01,2013-05-20 00:24:00,
2013-05-19 17:30:00,84.1,26.1,29.68,SSE,165,9.0,15.0,12,0.00,,SKC,0.00,VWS V14.01,2013-05-20 00:30:00,
2013-05-19 17:35:00,84.3,26.2,29.68,SE,136,5.0,10.0,12,0.00,,SKC,0.00,VWS V14.01,2013-05-20 00:35:00,
2013-05-19 17:40:00,84.0,26.0,29.68,SSE,148,6.0,11.0,12,0.00,,SKC,0.00,VWS V14.01,2013-05-20 00:40:00,
2013-05-19 17:45:00,84.0,26.0,29.68,SSE,153,4.0,11.0,12,0.00,,SKC,0.00,VWS V14.01,2013-05-20 00:45:00,
2013-05-19 17:50:00,84.1,24.0,29.68,SE,142,8.0,11.0,11,0.00,,SKC,0.00,VWS V14.01,2013-05-20 00:50:00,
2013-05-19 17:55:00,84.1,24.0,29.68,SE,135,8.0,11.0,11,0.00,,SKC,0.00,VWS V14.01,2013-05-20 00:55:00,
2013-05-19 18:00:00,83.6,23.6,29.68,South,177,6.0,14.0,11,0.00,,SKC,0.00,VWS V14.01,2013-05-20 01:00:00,
2013-05-19 18:05:00,83.4,23.4,29.68,SE,131,3.0,10.0,11,0.00,,SKC,0.00,VWS V14.01,2013-05-20 01:05:00,
2013-05-19 18:10:00,83.2,25.4,29.68,South,173,3.0,10.0,12,0.00,,SKC,0.00,VWS V14.01,2013-05-20 01:10:00,
2013-05-19 18:15:00,83.5,23.5,29.68,SE,129,5.0,10.0,11,0.00,,SKC,0.00,VWS V14.01,2013-05-20 01:15:00,
2013-05-19 18:20:00,83.3,23.4,29.69,SSE,162,4.0,10.0,11,0.00,,SKC,0.00,VWS V14.01,2013-05-20 01:20:00,
2013-05-19 18:25:00,83.0,23.1,29.69,SE,139,5.0,11.0,11,0.00,,SKC,0.00,VWS V14.01,2013-05-20 01:25:00,
2013-05-19 18:30:00,82.8,25.0,29.69,South,173,3.0,5.0,12,0.00,,SKC,0.00,VWS V14.01,2013-05-20 01:30:00,
2013-05-19 18:35:00,82.5,24.8,29.69,SSE,165,11.0,11.0,12,0.00,,SKC,0.00,VWS V14.01,2013-05-20 01:35:00,
2013-05-19 18:40:00,82.1,26.4,29.69,South,177,5.0,11.0,13,0.00,,SKC,0.00,VWS V14.01,2013-05-20 01:40:00,
2013-05-19 18:45:00,81.8,26.2,29.69,SE,137,6.0,11.0,13,0.00,,SKC,0.00,VWS V14.01,2013-05-20 01:45:00,
2013-05-19 18:51:00,81.5,26.0,29.69,SE,139,3.0,11.0,13,0.00,,SKC,0.00,VWS V14.01,2013-05-20 01:51:00,
2013-05-19 18:56:00,81.2,25.7,29.69,South,169,2.0,11.0,13,0.00,,SKC,0.00,VWS V14.01,2013-05-20 01:56:00,
2013-05-19 19:01:00,80.5,27.0,29.70,SE,136,1.0,3.0,14,0.00,,SKC,0.00,VWS V14.01,2013-05-20 02:01:00,
2013-05-19 19:06:00,79.8,26.4,29.70,SSE,162,3.0,5.0,14,0.00,,SKC,0.00,VWS V14.01,2013-05-20 02:06:00,
2013-05-19 19:11:00,79.1,25.9,29.70,South,179,4.0,5.0,14,0.00,,SKC,0.00,VWS V14.01,2013-05-20 02:11:00,
2013-05-19 19:16:00,78.6,25.5,29.70,SSE,166,2.0,6.0,14,0.00,,SKC,0.00,VWS V14.01,2013-05-20 02:16:00,
2013-05-19 19:21:00,78.1,26.7,29.70,SSE,160,2.0,6.0,15,0.00,,SKC,0.00,VWS V14.01,2013-05-20 02:21:00,
2013-05-19 19:26:00,77.7,24.8,29.70,South,174,1.0,6.0,14,0.00,,SKC,0.00,VWS V14.01,2013-05-20 02:26:00,
2013-05-19 19:31:00,77.1,25.9,29.71,South,181,2.0,2.0,15,0.00,,SKC,0.00,VWS V14.01,2013-05-20 02:31:00,
2013-05-19 19:36:00,76.6,25.5,29.71,South,188,3.0,3.0,15,0.00,,SKC,0.00,VWS V14.01,2013-05-20 02:36:00,
2013-05-19 19:41:00,76.3,25.3,29.71,SE,136,1.0,3.0,15,0.00,,SKC,0.00,VWS V14.01,2013-05-20 02:41:00,
2013-05-19 19:46:00,75.9,25.0,29.72,SSE,160,1.0,3.0,15,0.00,,SKC,0.00,VWS V14.01,2013-05-20 02:46:00,
2013-05-19 19:51:00,75.5,26.2,29.72,SSE,155,1.0,3.0,16,0.00,,SKC,0.00,VWS V14.01,2013-05-20 02:51:00,
2013-05-19 19:56:00,74.9,25.7,29.72,SSE,155,0.0,3.0,16,0.00,,SKC,0.00,VWS V14.01,2013-05-20 02:56:00,
2013-05-19 20:01:00,74.2,26.6,29.72,SE,132,1.0,1.0,17,0.00,,SKC,0.00,VWS V14.01,2013-05-20 03:01:00,
2013-05-19 20:06:00,73.5,26.1,29.72,SE,132,0.0,1.0,17,0.00,,SKC,0.00,VWS V14.01,2013-05-20 03:06:00,
2013-05-19 20:12:00,72.8,26.9,29.72,SE,132,0.0,1.0,18,0.00,,SKC,0.00,VWS V14.01,2013-05-20 03:12:00,
2013-05-19 20:17:00,72.0,26.2,29.73,SE,132,0.0,1.0,18,0.00,,SKC,0.00,VWS V14.01,2013-05-20 03:17:00,
2013-05-19 20:22:00,71.4,27.0,29.73,SE,132,0.0,1.0,19,0.00,,SKC,0.00,VWS V14.01,2013-05-20 03:22:00,
2013-05-19 20:27:00,70.8,26.5,29.73,SE,132,0.0,1.0,19,0.00,,SKC,0.00,VWS V14.01,2013-05-20 03:27:00,
2013-05-19 20:32:00,70.1,27.2,29.73,SE,132,0.0,0.0,20,0.00,,SKC,0.00,VWS V14.01,2013-05-20 03:32:00,
2013-05-19 20:37:00,69.6,26.8,29.73,SE,134,0.0,1.0,20,0.00,,SKC,0.00,VWS V14.01,2013-05-20 03:37:00,
2013-05-19 20:42:00,69.4,26.6,29.73,SE,134,0.0,1.0,20,0.00,,SKC,0.00,VWS V14.01,2013-05-20 03:42:00,
2013-05-19 20:47:00,69.1,26.4,29.73,SE,136,0.0,1.0,20,0.00,,SKC,0.00,VWS V14.01,2013-05-20 03:47:00,
2013-05-19 20:52:00,68.8,26.1,29.74,SE,136,0.0,1.0,20,0.00,,SKC,0.00,VWS V14.01,2013-05-20 03:52:00,
2013-05-19 20:57:00,68.6,27.1,29.74,SE,139,0.0,1.0,21,0.00,,SKC,0.00,VWS V14.01,2013-05-20 03:57:00,
2013-05-19 21:01:00,68.6,27.1,29.74,SE,139,1.0,1.0,21,0.00,,SKC,0.00,VWS V14.01,2013-05-20 04:01:00,
2013-05-19 21:02:00,68.6,27.1,29.74,SE,139,0.0,1.0,21,0.00,,SKC,0.00,VWS V14.01,2013-05-20 04:02:00,
2013-05-19 21:03:00,68.6,27.1,29.74,SE,139,0.0,1.0,21,0.00,,SKC,0.00,VWS V14.01,2013-05-20 04:03:00,
2013-05-19 21:07:00,68.5,27.1,29.74,SE,138,0.0,1.0,21,0.00,,SKC,0.00,VWS V14.01,2013-05-20 04:07:00,
2013-05-19 21:08:00,68.4,27.0,29.74,SE,139,0.0,1.0,21,0.00,,SKC,0.00,VWS V14.01,2013-05-20 04:08:00,
2013-05-19 21:13:00,67.9,27.7,29.75,SE,138,0.0,1.0,22,0.00,,SKC,0.00,VWS V14.01,2013-05-20 04:13:00,
2013-05-19 21:18:00,67.9,26.6,29.75,SE,132,0.0,2.0,21,0.00,,SKC,0.00,VWS V14.01,2013-05-20 04:18:00,
2013-05-19 21:24:00,68.0,27.8,29.75,SE,132,0.0,2.0,22,0.00,,SKC,0.00,VWS V14.01,2013-05-20 04:24:00,
2013-05-19 21:29:00,67.6,27.4,29.75,SE,132,0.0,2.0,22,0.00,,SKC,0.00,VWS V14.01,2013-05-20 04:29:00,
2013-05-19 21:34:00,67.2,27.1,29.75,SE,132,0.0,1.0,22,0.00,,SKC,0.00,VWS V14.01,2013-05-20 04:34:00,
2013-05-19 21:39:00,66.9,27.9,29.75,SE,132,0.0,1.0,23,0.00,,SKC,0.00,VWS V14.01,2013-05-20 04:39:00,
2013-05-19 21:44:00,66.6,27.7,29.75,SE,133,0.0,1.0,23,0.00,,SKC,0.00,VWS V14.01,2013-05-20 04:44:00,
2013-05-19 21:49:00,65.9,27.1,29.75,SE,133,0.0,1.0,23,0.00,,SKC,0.00,VWS V14.01,2013-05-20 04:49:00,
2013-05-19 21:54:00,65.4,27.7,29.75,SE,132,0.0,1.0,24,0.00,,SKC,0.00,VWS V14.01,2013-05-20 04:54:00,
2013-05-19 21:59:00,64.8,31.0,29.75,SE,132,0.0,1.0,28,0.00,,SKC,0.00,VWS V14.01,2013-05-20 04:59:00,
2013-05-19 22:04:00,63.9,31.9,29.76,SE,133,0.0,1.0,30,0.00,,SKC,0.00,VWS V14.01,2013-05-20 05:04:00,
2013-05-19 22:09:00,63.0,30.3,29.76,SE,133,0.0,1.0,29,0.00,,SKC,0.00,VWS V14.01,2013-05-20 05:09:00,
2013-05-19 22:14:00,62.8,30.9,29.76,SE,133,0.0,1.0,30,0.00,,SKC,0.00,VWS V14.01,2013-05-20 05:14:00,
2013-05-19 22:19:00,62.1,32.7,29.76,SE,136,1.0,1.0,33,0.00,,SKC,0.00,VWS V14.01,2013-05-20 05:19:00,
2013-05-19 22:24:00,61.4,32.1,29.76,SSW,200,0.0,1.0,33,0.00,,SKC,0.00,VWS V14.01,2013-05-20 05:24:00,
2013-05-19 22:29:00,60.7,33.6,29.76,SSW,200,1.0,1.0,36,0.00,,SKC,0.00,VWS V14.01,2013-05-20 05:29:00,
2013-05-19 22:35:00,60.3,32.6,29.76,SSW,200,0.0,1.0,35,0.00,,SKC,0.00,VWS V14.01,2013-05-20 05:35:00,
2013-05-19 22:40:00,60.1,33.1,29.76,SW,224,1.0,2.0,36,0.00,,SKC,0.00,VWS V14.01,2013-05-20 05:40:00,
2013-05-19 22:45:00,60.9,31.6,29.76,West,260,3.0,3.0,33,0.00,,SKC,0.00,VWS V14.01,2013-05-20 05:45:00,
2013-05-19 22:50:00,62.3,30.5,29.76,SW,214,0.0,3.0,30,0.00,,SKC,0.00,VWS V14.01,2013-05-20 05:50:00,
2013-05-19 22:55:00,63.9,30.2,29.76,SSE,158,1.0,4.0,28,0.00,,SKC,0.00,VWS V14.01,2013-05-20 05:55:00,
2013-05-19 23:00:00,67.5,29.5,29.76,SE,134,1.0,4.0,24,0.00,,SKC,0.00,VWS V14.01,2013-05-20 06:00:00,
2013-05-19 23:05:00,68.8,29.5,29.76,SSE,160,2.0,3.0,23,0.00,,SKC,0.00,VWS V14.01,2013-05-20 06:05:00,
2013-05-19 23:10:00,69.2,29.9,29.76,SE,145,2.0,5.0,23,0.00,,SKC,0.00,VWS V14.01,2013-05-20 06:10:00,
2013-05-19 23:15:00,70.3,29.7,29.76,SSE,166,4.0,5.0,22,0.00,,SKC,0.00,VWS V14.01,2013-05-20 06:15:00,
2013-05-19 23:20:00,70.5,29.9,29.76,SSW,192,5.0,5.0,22,0.00,,SKC,0.00,VWS V14.01,2013-05-20 06:20:00,
2013-05-19 23:25:00,70.8,30.1,29.76,East,97,5.0,5.0,22,0.00,,SKC,0.00,VWS V14.01,2013-05-20 06:25:00,
2013-05-19 23:30:00,70.8,30.1,29.76,South,176,1.0,5.0,22,0.00,,SKC,0.00,VWS V14.01,2013-05-20 06:30:00,
2013-05-19 23:35:00,70.2,29.6,29.76,SSW,195,4.0,4.0,22,0.00,,SKC,0.00,VWS V14.01,2013-05-20 06:35:00,
2013-05-19 23:40:00,70.3,29.7,29.77,South,179,3.0,5.0,22,0.00,,SKC,0.00,VWS V14.01,2013-05-20 06:40:00,
2013-05-19 23:45:00,70.1,29.5,29.77,SSW,193,2.0,5.0,22,0.00,,SKC,0.00,VWS V14.01,2013-05-20 06:45:00,
2013-05-19 23:50:00,69.9,29.4,29.77,SSW,200,2.0,5.0,22,0.00,,SKC,0.00,VWS V14.01,2013-05-20 06:50:00,
2013-05-19 23:55:00,69.6,30.2,29.77,SSW,195,1.0,5.0,23,0.00,,SKC,0.00,VWS V14.01,2013-05-20 06:55:00,